createdAt,value
2019-03-17T00:00:33.558Z,74.88
2019-03-17T00:01:43.679Z,74.6
2019-03-17T00:03:04.987Z,74.5
2019-03-17T00:04:15.168Z,74.21
2019-03-17T00:05:36.818Z,74.4
2019-03-17T00:06:46.985Z,74.4
2019-03-17T00:07:57.139Z,74.4
2019-03-17T00:09:06.973Z,74.6
2019-03-17T00:10:17.179Z,74.69
2019-03-17T00:11:27.072Z,74.5
2019-03-17T00:12:37.209Z,74.4
2019-03-17T00:13:47.335Z,74.69
2019-03-17T00:15:07.396Z,74.4
2019-03-17T00:16:17.507Z,74.4
2019-03-17T00:17:27.785Z,74.6
2019-03-17T00:18:37.904Z,74.5
2019-03-17T00:19:47.689Z,74.6
2019-03-17T00:20:57.819Z,74.31
2019-03-17T00:22:07.933Z,74.4
2019-03-17T00:23:18.061Z,74.21
2019-03-17T00:24:28.204Z,74.4
2019-03-17T00:25:38.330Z,74.69
2019-03-17T00:26:48.453Z,74.31
2019-03-17T00:27:58.587Z,75.16
2019-03-17T00:29:08.709Z,75.16
2019-03-17T00:30:18.821Z,74.31
2019-03-17T00:31:28.946Z,74.4
2019-03-17T00:32:39.067Z,74.6
2019-03-17T00:33:49.187Z,75.07
2019-03-17T00:34:59.304Z,74.88
2019-03-17T00:36:09.454Z,75.07
2019-03-17T00:37:19.572Z,75.16
2019-03-17T00:38:29.691Z,74.98
2019-03-17T00:39:39.807Z,74.69
2019-03-17T00:40:52.012Z,74.79
2019-03-17T00:42:02.121Z,74.79
2019-03-17T00:43:12.234Z,74.88
2019-03-17T00:44:22.341Z,74.88
2019-03-17T00:45:32.452Z,74.69
2019-03-17T00:46:42.588Z,74.79
2019-03-17T00:47:52.699Z,74.69
2019-03-17T00:49:02.825Z,74.69
2019-03-17T00:50:12.981Z,75.16
2019-03-17T00:51:23.038Z,74.98
2019-03-17T00:52:33.141Z,74.79
2019-03-17T00:53:43.257Z,74.98
2019-03-17T00:54:53.365Z,75.07
2019-03-17T00:56:03.483Z,75.26
2019-03-17T00:57:13.608Z,75.26
2019-03-17T00:58:23.738Z,75.36
2019-03-17T00:59:33.846Z,75.36
2019-03-17T01:00:43.941Z,75.16
2019-03-17T01:01:54.105Z,75.16
2019-03-17T01:03:04.208Z,75.16
2019-03-17T01:04:14.328Z,75.16
2019-03-17T01:05:24.443Z,74.98
2019-03-17T01:06:36.837Z,75.16
2019-03-17T01:07:46.684Z,75.51
2019-03-17T01:08:56.869Z,75.23
2019-03-17T01:10:07.007Z,75.23
2019-03-17T01:11:17.145Z,75.42
2019-03-17T01:12:27.254Z,75.6
2019-03-17T01:13:37.116Z,75.42
2019-03-17T01:14:47.232Z,75.42
2019-03-17T01:15:56.726Z,75.32
2019-03-17T01:17:06.859Z,75.13
2019-03-17T01:18:16.723Z,75.42
2019-03-17T01:19:26.584Z,75.42
2019-03-17T01:20:36.686Z,75.13
2019-03-17T01:21:46.818Z,75.32
2019-03-17T01:22:56.913Z,75.6
2019-03-17T01:24:06.770Z,75.23
2019-03-17T01:25:18.205Z,75.6
2019-03-17T01:26:28.322Z,75.32
2019-03-17T01:27:38.452Z,75.32
2019-03-17T01:28:48.580Z,75.23
2019-03-17T01:30:00.159Z,75.6
2019-03-17T01:31:10.493Z,75.42
2019-03-17T01:32:20.615Z,75.51
2019-03-17T01:33:30.706Z,75.42
2019-03-17T01:34:40.821Z,75.6
2019-03-17T01:35:50.927Z,75.6
2019-03-17T01:37:01.028Z,75.51
2019-03-17T01:38:11.154Z,75.13
2019-03-17T01:39:21.268Z,75.32
2019-03-17T01:40:31.399Z,75.42
2019-03-17T01:41:41.601Z,75.89
2019-03-17T01:42:51.702Z,75.89
2019-03-17T01:44:01.831Z,75.89
2019-03-17T01:45:11.942Z,75.7
2019-03-17T01:46:23.126Z,76.18
2019-03-17T01:47:33.338Z,75.79
2019-03-17T01:48:43.464Z,75.7
2019-03-17T01:49:53.579Z,75.7
2019-03-17T01:51:03.692Z,75.79
2019-03-17T01:52:13.802Z,75.79
2019-03-17T01:53:23.918Z,75.79
2019-03-17T01:54:34.028Z,75.99
2019-03-17T01:55:43.887Z,75.99
2019-03-17T01:56:54.007Z,75.99
2019-03-17T01:58:04.141Z,75.7
2019-03-17T01:59:14.250Z,75.79
2019-03-17T02:00:24.390Z,76.08
2019-03-17T02:01:34.246Z,75.89
2019-03-17T02:02:44.351Z,75.7
2019-03-17T02:03:54.463Z,76.08
2019-03-17T02:05:04.574Z,76.08
2019-03-17T02:06:26.548Z,76.08
2019-03-17T02:07:36.643Z,76.37
2019-03-17T02:08:46.752Z,76.18
2019-03-17T02:09:56.861Z,76.08
2019-03-17T02:11:07.015Z,76.27
2019-03-17T02:12:17.142Z,76.08
2019-03-17T02:13:26.649Z,76.27
2019-03-17T02:14:36.758Z,76.27
2019-03-17T02:15:46.866Z,76.18
2019-03-17T02:16:56.966Z,76.18
2019-03-17T02:18:07.087Z,76.08
2019-03-17T02:19:17.219Z,76.27
2019-03-17T02:20:27.322Z,76.18
2019-03-17T02:21:37.435Z,76.84
2019-03-17T02:22:47.541Z,76.75
2019-03-17T02:23:57.422Z,76.46
2019-03-17T02:25:07.543Z,76.56
2019-03-17T02:26:17.657Z,76.27
2019-03-17T02:27:27.757Z,76.56
2019-03-17T02:28:37.941Z,76.75
2019-03-17T02:29:48.161Z,76.56
2019-03-17T02:30:58.269Z,76.75
2019-03-17T02:32:08.149Z,76.65
2019-03-17T02:33:18.278Z,76.71
2019-03-17T02:34:28.152Z,76.61
2019-03-17T02:35:42.250Z,76.84
2019-03-17T02:36:52.357Z,76.75
2019-03-17T02:38:02.471Z,77.03
2019-03-17T02:39:12.573Z,76.65
2019-03-17T02:40:22.700Z,76.81
2019-03-17T02:41:32.801Z,77.47
2019-03-17T02:42:42.973Z,77.09
2019-03-17T02:43:53.112Z,77.09
2019-03-17T02:45:03.257Z,77
2019-03-17T02:46:13.370Z,77
2019-03-17T02:47:23.493Z,77.28
2019-03-17T02:48:33.612Z,77.37
2019-03-17T02:49:43.732Z,77.19
2019-03-17T02:50:53.863Z,77.09
2019-03-17T02:52:03.971Z,77.19
2019-03-17T02:53:14.080Z,76.9
2019-03-17T02:54:24.238Z,77.37
2019-03-17T02:55:34.158Z,77.66
2019-03-17T02:56:44.288Z,77.47
2019-03-17T02:57:54.392Z,77.19
2019-03-17T02:59:04.564Z,77.56
2019-03-17T03:00:18.141Z,78.04
2019-03-17T03:01:28.650Z,77.85
2019-03-17T03:02:38.826Z,77.66
2019-03-17T03:03:48.951Z,77.66
2019-03-17T03:04:59.101Z,77.66
2019-03-17T03:06:09.213Z,77.66
2019-03-17T03:07:19.081Z,77.95
2019-03-17T03:08:29.178Z,77.95
2019-03-17T03:09:39.315Z,77.66
2019-03-17T03:10:49.457Z,77.76
2019-03-17T03:11:59.804Z,78.04
2019-03-17T03:13:09.929Z,77.76
2019-03-17T03:14:20.078Z,77.85
2019-03-17T03:15:30.190Z,77.76
2019-03-17T03:16:40.325Z,77.47
2019-03-17T03:17:50.542Z,77.95
2019-03-17T03:19:00.662Z,77.61
2019-03-17T03:20:10.816Z,77.42
2019-03-17T03:21:21.044Z,77.42
2019-03-17T03:22:31.170Z,77.51
2019-03-17T03:23:41.291Z,77.42
2019-03-17T03:24:51.393Z,77.22
2019-03-17T03:26:01.409Z,77.03
2019-03-17T03:27:11.517Z,77.22
2019-03-17T03:28:21.644Z,77.42
2019-03-17T03:29:31.801Z,77.22
2019-03-17T03:30:41.958Z,77.22
2019-03-17T03:31:52.156Z,77.22
2019-03-17T03:33:02.293Z,77.22
2019-03-17T03:34:12.475Z,77.22
2019-03-17T03:35:22.361Z,77.32
2019-03-17T03:36:32.482Z,77.32
2019-03-17T03:37:42.612Z,77.22
2019-03-17T03:38:52.467Z,77.22
2019-03-17T03:40:02.623Z,77.32
2019-03-17T03:41:12.735Z,77.13
2019-03-17T03:42:22.965Z,77.61
2019-03-17T03:43:33.083Z,77.42
2019-03-17T03:44:43.315Z,77.89
2019-03-17T03:45:53.440Z,78.14
2019-03-17T03:47:03.635Z,78.42
2019-03-17T03:48:13.735Z,78.33
2019-03-17T03:49:23.856Z,78.52
2019-03-17T03:50:34.030Z,78.99
2019-03-17T03:51:44.160Z,78.99
2019-03-17T03:52:54.335Z,78.8
2019-03-17T03:54:04.483Z,78.99
2019-03-17T03:55:14.759Z,79.38
2019-03-17T03:56:24.916Z,79.28
2019-03-17T03:57:35.072Z,79.28
2019-03-17T03:58:45.218Z,78.99
2019-03-17T03:59:55.366Z,79.19
2019-03-17T04:01:05.842Z,79.28
2019-03-17T04:02:16.004Z,79.28
2019-03-17T04:03:26.155Z,79.47
2019-03-17T04:04:36.293Z,79.38
2019-03-17T04:05:46.425Z,79.47
2019-03-17T04:06:56.601Z,79.38
2019-03-17T04:08:06.726Z,79.09
2019-03-17T04:09:16.860Z,79.38
2019-03-17T04:10:26.995Z,79.38
2019-03-17T04:11:37.116Z,79.28
2019-03-17T04:12:47.268Z,79.28
2019-03-17T04:13:57.414Z,79.28
2019-03-17T04:15:07.563Z,79.28
2019-03-17T04:16:17.671Z,79.09
2019-03-17T04:17:27.796Z,79.47
2019-03-17T04:18:37.932Z,79.47
2019-03-17T04:19:48.053Z,79.28
2019-03-17T04:20:58.182Z,79.09
2019-03-17T04:22:08.061Z,79.09
2019-03-17T04:23:18.231Z,79.28
2019-03-17T04:24:28.102Z,79.28
2019-03-17T04:25:38.239Z,79.38
2019-03-17T04:26:48.363Z,79.85
2019-03-17T04:27:58.243Z,79.94
2019-03-17T04:29:08.380Z,79.85
2019-03-17T04:30:18.577Z,79.75
2019-03-17T04:31:28.807Z,79.85
2019-03-17T04:32:38.950Z,79.75
2019-03-17T04:33:49.148Z,79.94
2019-03-17T04:34:59.250Z,79.66
2019-03-17T04:36:09.375Z,79.57
2019-03-17T04:37:19.475Z,79.47
2019-03-17T04:38:29.602Z,79.47
2019-03-17T04:39:39.718Z,79.66
2019-03-17T04:40:49.838Z,79.66
2019-03-17T04:42:00.027Z,79.75
2019-03-17T04:43:10.128Z,79.47
2019-03-17T04:44:23.687Z,79.47
2019-03-17T04:45:33.787Z,79.75
2019-03-17T04:46:43.898Z,79.38
2019-03-17T04:47:54.014Z,79.47
2019-03-17T04:49:04.221Z,79.75
2019-03-17T04:50:14.336Z,79.66
2019-03-17T04:51:24.441Z,79.75
2019-03-17T04:52:34.544Z,79.66
2019-03-17T04:53:44.653Z,79.75
2019-03-17T04:54:54.757Z,79.47
2019-03-17T04:56:04.887Z,79.38
2019-03-17T04:57:14.996Z,79.19
2019-03-17T04:58:25.104Z,79.38
2019-03-17T04:59:35.206Z,79.38
2019-03-17T05:00:45.307Z,79.47
2019-03-17T05:01:55.431Z,79.09
2019-03-17T05:03:05.321Z,79.19
2019-03-17T05:04:15.428Z,79.38
2019-03-17T05:05:25.547Z,79.09
2019-03-17T05:06:35.648Z,79.38
2019-03-17T05:07:57.751Z,79.38
2019-03-17T05:09:07.855Z,79.28
2019-03-17T05:10:17.954Z,79.38
2019-03-17T05:11:30.702Z,79.19
2019-03-17T05:12:40.828Z,79.19
2019-03-17T05:13:51.023Z,79.38
2019-03-17T05:15:01.158Z,79.28
2019-03-17T05:16:11.260Z,79.47
2019-03-17T05:17:21.368Z,79.38
2019-03-17T05:18:31.494Z,79.38
2019-03-17T05:19:41.583Z,79.38
2019-03-17T05:20:51.695Z,79.09
2019-03-17T05:22:01.798Z,79.28
2019-03-17T05:23:11.638Z,79.38
2019-03-17T05:24:21.492Z,79.38
2019-03-17T05:25:31.331Z,79.47
2019-03-17T05:26:41.440Z,79.28
2019-03-17T05:27:51.639Z,79.38
2019-03-17T05:29:01.747Z,79.28
2019-03-17T05:30:11.853Z,79.28
2019-03-17T05:31:21.947Z,79.47
2019-03-17T05:32:32.061Z,79.28
2019-03-17T05:33:42.177Z,79.38
2019-03-17T05:34:52.277Z,79.38
2019-03-17T05:36:02.398Z,79.38
2019-03-17T05:37:12.505Z,79.28
2019-03-17T05:38:22.620Z,79.28
2019-03-17T05:39:32.718Z,79.28
2019-03-17T05:40:42.909Z,79.28
2019-03-17T05:41:53.031Z,79.38
2019-03-17T05:43:03.144Z,79.66
2019-03-17T05:44:13.259Z,79.28
2019-03-17T05:45:23.153Z,79.57
2019-03-17T05:46:33.264Z,79.47
2019-03-17T05:47:43.447Z,79.38
2019-03-17T05:48:53.549Z,78.99
2019-03-17T05:50:03.426Z,78.9
2019-03-17T05:51:13.530Z,78.9
2019-03-17T05:52:23.636Z,79.09
2019-03-17T05:53:33.723Z,79.09
2019-03-17T05:54:45.772Z,78.99
2019-03-17T05:55:55.878Z,78.99
2019-03-17T05:57:06.000Z,78.99
2019-03-17T05:58:16.108Z,78.9
2019-03-17T05:59:26.208Z,78.8
2019-03-17T06:00:36.385Z,78.9
2019-03-17T06:01:46.541Z,78.8
2019-03-17T06:02:56.659Z,78.33
2019-03-17T06:04:06.753Z,78.33
2019-03-17T06:05:16.605Z,78.33
2019-03-17T06:06:26.218Z,78.52
2019-03-17T06:07:36.349Z,78.52
2019-03-17T06:08:46.460Z,78.23
2019-03-17T06:09:56.594Z,78.33
2019-03-17T06:11:06.718Z,78.14
2019-03-17T06:12:16.833Z,78.14
2019-03-17T06:13:26.938Z,78.14
2019-03-17T06:14:37.045Z,77.89
2019-03-17T06:15:47.165Z,77.7
2019-03-17T06:16:57.293Z,77.98
2019-03-17T06:18:07.491Z,77.8
2019-03-17T06:19:17.430Z,77.98
2019-03-17T06:20:27.531Z,77.8
2019-03-17T06:21:38.623Z,78.17
2019-03-17T06:22:48.715Z,77.98
2019-03-17T06:23:58.822Z,77.8
2019-03-17T06:25:08.969Z,77.7
2019-03-17T06:26:19.118Z,77.61
2019-03-17T06:27:29.253Z,77.98
2019-03-17T06:28:39.355Z,77.98
2019-03-17T06:29:49.487Z,77.42
2019-03-17T06:30:59.586Z,77.61
2019-03-17T06:32:09.729Z,77.51
2019-03-17T06:33:19.862Z,77.51
2019-03-17T06:34:30.033Z,77.42
2019-03-17T06:35:40.187Z,77.7
2019-03-17T06:36:50.299Z,77.51
2019-03-17T06:38:00.413Z,76.94
2019-03-17T06:39:10.510Z,77.22
2019-03-17T06:40:20.696Z,77.13
2019-03-17T06:41:30.788Z,77.32
2019-03-17T06:42:40.927Z,77.32
2019-03-17T06:43:51.039Z,77.22
2019-03-17T06:45:01.138Z,77.13
2019-03-17T06:46:10.999Z,77.13
2019-03-17T06:47:21.143Z,77.22
2019-03-17T06:48:31.259Z,77.22
2019-03-17T06:49:41.107Z,77.22
2019-03-17T06:50:51.220Z,77.32
2019-03-17T06:52:01.320Z,76.84
2019-03-17T06:53:11.441Z,77.03
2019-03-17T06:54:21.393Z,77.03
2019-03-17T06:55:31.488Z,76.94
2019-03-17T06:56:41.629Z,77.03
2019-03-17T06:57:51.767Z,76.46
2019-03-17T06:59:01.929Z,76.75
2019-03-17T07:00:12.036Z,76.84
2019-03-17T07:01:22.178Z,76.75
2019-03-17T07:02:32.281Z,76.46
2019-03-17T07:03:42.405Z,77.22
2019-03-17T07:04:53.979Z,76.65
2019-03-17T07:06:04.309Z,76.65
2019-03-17T07:07:14.414Z,76.46
2019-03-17T07:08:24.512Z,76.56
2019-03-17T07:09:34.867Z,75.89
2019-03-17T07:10:44.997Z,75.93
2019-03-17T07:11:55.114Z,76.4
2019-03-17T07:13:05.250Z,76.4
2019-03-17T07:14:15.361Z,75.84
2019-03-17T07:15:25.493Z,75.55
2019-03-17T07:16:35.593Z,75.55
2019-03-17T07:17:45.739Z,75.84
2019-03-17T07:18:55.856Z,75.36
2019-03-17T07:20:05.981Z,75.36
2019-03-17T07:21:16.112Z,75.16
2019-03-17T07:22:26.236Z,74.92
2019-03-17T07:23:36.949Z,74.73
2019-03-17T07:24:47.062Z,74.92
2019-03-17T07:25:57.164Z,74.44
2019-03-17T07:27:07.293Z,74.54
2019-03-17T07:28:17.477Z,74.25
2019-03-17T07:29:27.579Z,74.25
2019-03-17T07:30:37.701Z,73.96
2019-03-17T07:31:47.927Z,74.06
2019-03-17T07:32:58.066Z,73.87
2019-03-17T07:34:08.177Z,73.77
2019-03-17T07:35:18.302Z,73.68
2019-03-17T07:36:28.434Z,73.72
2019-03-17T07:37:38.624Z,73.62
2019-03-17T07:39:13.503Z,72.86
2019-03-17T07:40:23.616Z,73.24
2019-03-17T07:41:33.755Z,72.96
2019-03-17T07:42:43.886Z,72.38
2019-03-17T07:43:53.744Z,73.05
2019-03-17T07:45:03.860Z,72.19
2019-03-17T07:46:13.960Z,72.96
2019-03-17T07:47:24.095Z,72.86
2019-03-17T07:48:34.217Z,72.23
2019-03-17T07:49:44.351Z,72.32
2019-03-17T07:50:54.211Z,71.66
2019-03-17T07:52:04.337Z,71.46
2019-03-17T07:53:14.461Z,71.08
2019-03-17T07:54:24.600Z,70.73
2019-03-17T07:55:34.701Z,70.54
2019-03-17T07:56:44.861Z,70.64
2019-03-17T07:57:54.985Z,69.87
2019-03-17T07:59:05.097Z,68.86
2019-03-17T08:00:15.233Z,68.86
2019-03-17T08:01:37.123Z,68.67
2019-03-17T08:02:47.255Z,68.19
2019-03-17T08:03:57.390Z,68.04
2019-03-17T08:05:07.522Z,67.4
2019-03-17T08:06:17.628Z,64.59
2019-03-17T08:07:27.743Z,63.8
2019-03-17T08:08:37.989Z,60.57
2019-03-17T08:09:47.802Z,57.56
2019-03-17T08:10:57.942Z,58.42
2019-03-17T08:12:08.059Z,58.64
2019-03-17T08:13:18.356Z,56.27
2019-03-17T08:14:28.249Z,54.47
2019-03-17T08:15:38.407Z,55.27
2019-03-17T08:16:48.562Z,54.14
2019-03-17T08:17:58.674Z,53.69
2019-03-17T08:19:08.782Z,52.44
2019-03-17T08:20:18.888Z,51.38
2019-03-17T08:21:29.030Z,50.9
2019-03-17T08:22:39.168Z,52.25
2019-03-17T08:23:49.340Z,52.51
2019-03-17T08:24:59.482Z,51.67
2019-03-17T08:26:09.599Z,51.57
2019-03-17T08:27:19.742Z,50.9
2019-03-17T08:28:29.866Z,49.1
2019-03-17T08:29:39.986Z,50.93
2019-03-17T08:30:55.747Z,51.29
2019-03-17T08:32:05.893Z,51.43
2019-03-17T08:33:16.007Z,51.59
2019-03-17T08:34:25.912Z,52.31
2019-03-17T08:35:36.071Z,53.63
2019-03-17T08:36:46.192Z,53.89
2019-03-17T08:37:56.312Z,55.08
2019-03-17T08:39:06.439Z,56.2
2019-03-17T08:40:16.336Z,56.84
2019-03-17T08:41:26.491Z,58.54
2019-03-17T08:42:36.625Z,59.11
2019-03-17T08:43:56.456Z,60.23
2019-03-17T08:45:06.594Z,60.58
2019-03-17T08:46:16.734Z,61.25
2019-03-17T08:47:26.915Z,61.92
2019-03-17T08:48:37.042Z,62.84
2019-03-17T08:49:47.175Z,63.13
2019-03-17T08:50:57.292Z,63.13
2019-03-17T08:52:07.427Z,63.51
2019-03-17T08:53:17.338Z,63.8
2019-03-17T08:54:27.466Z,64.75
2019-03-17T08:55:37.596Z,64.91
2019-03-17T08:56:48.716Z,65.04
2019-03-17T08:57:58.845Z,65.58
2019-03-17T08:59:09.020Z,65.67
2019-03-17T09:00:19.178Z,65.58
2019-03-17T09:01:29.109Z,65.77
2019-03-17T09:02:39.223Z,65.39
2019-03-17T09:03:49.346Z,66.25
2019-03-17T09:04:59.477Z,66.06
2019-03-17T09:06:09.621Z,66.15
2019-03-17T09:07:19.769Z,66.06
2019-03-17T09:08:37.648Z,66.06
2019-03-17T09:09:47.778Z,66.82
2019-03-17T09:10:57.901Z,66.82
2019-03-17T09:12:07.760Z,67.01
2019-03-17T09:13:17.917Z,66.63
2019-03-17T09:14:28.057Z,66.63
2019-03-17T09:15:37.932Z,66.82
2019-03-17T09:16:47.851Z,67.11
2019-03-17T09:17:58.011Z,67.11
2019-03-17T09:19:08.140Z,67.21
2019-03-17T09:20:18.273Z,67.11
2019-03-17T09:21:28.437Z,67.3
2019-03-17T09:22:38.606Z,67.4
2019-03-17T09:23:48.912Z,67.4
2019-03-17T09:24:59.045Z,67.49
2019-03-17T09:26:09.162Z,67.21
2019-03-17T09:27:19.289Z,67.68
2019-03-17T09:28:29.450Z,67.68
2019-03-17T09:29:39.581Z,67.68
2019-03-17T09:30:49.712Z,68.06
2019-03-17T09:31:59.874Z,68.35
2019-03-17T09:33:10.027Z,68.35
2019-03-17T09:34:20.164Z,68.44
2019-03-17T09:35:30.285Z,68.35
2019-03-17T09:36:40.514Z,68.51
2019-03-17T09:37:50.754Z,68.51
2019-03-17T09:39:00.886Z,68.63
2019-03-17T09:40:11.040Z,69.08
2019-03-17T09:41:21.250Z,69.02
2019-03-17T09:42:31.386Z,69.08
2019-03-17T09:43:41.520Z,69.17
2019-03-17T09:44:51.400Z,69.08
2019-03-17T09:46:01.533Z,69.21
2019-03-17T09:47:11.673Z,69.31
2019-03-17T09:48:21.835Z,69.27
2019-03-17T09:49:31.968Z,69.68
2019-03-17T09:50:42.123Z,69.56
2019-03-17T09:51:52.265Z,69.56
2019-03-17T09:53:02.419Z,69.74
2019-03-17T09:54:12.553Z,69.56
2019-03-17T09:55:22.766Z,69.93
2019-03-17T09:56:32.919Z,69.93
2019-03-17T09:57:43.086Z,69.93
2019-03-17T09:58:53.234Z,70.22
2019-03-17T10:00:03.358Z,69.93
2019-03-17T10:01:13.501Z,70.7
2019-03-17T10:02:23.645Z,70.61
2019-03-17T10:03:33.798Z,70.32
2019-03-17T10:04:43.949Z,70.22
2019-03-17T10:05:54.105Z,70.42
2019-03-17T10:07:04.245Z,70.79
2019-03-17T10:08:14.396Z,70.61
2019-03-17T10:09:24.548Z,70.89
2019-03-17T10:10:34.692Z,70.79
2019-03-17T10:11:44.848Z,70.89
2019-03-17T10:12:55.016Z,71.08
2019-03-17T10:14:06.139Z,71.37
2019-03-17T10:15:16.285Z,71.56
2019-03-17T10:16:26.517Z,71.46
2019-03-17T10:17:36.652Z,71.66
2019-03-17T10:18:46.783Z,71.75
2019-03-17T10:19:56.691Z,71.37
2019-03-17T10:21:06.828Z,71.66
2019-03-17T10:22:16.970Z,71.56
2019-03-17T10:23:27.088Z,71.84
2019-03-17T10:24:37.236Z,71.84
2019-03-17T10:25:47.384Z,71.84
2019-03-17T10:26:57.278Z,72.51
2019-03-17T10:28:07.449Z,72.23
2019-03-17T10:29:17.594Z,72.32
2019-03-17T10:30:27.752Z,72.23
2019-03-17T10:31:37.892Z,72.42
2019-03-17T10:32:47.796Z,72.64
2019-03-17T10:33:58.055Z,72.8
2019-03-17T10:35:08.205Z,72.8
2019-03-17T10:36:19.320Z,72.83
2019-03-17T10:37:29.457Z,73.03
2019-03-17T10:38:39.659Z,72.83
2019-03-17T10:39:49.784Z,72.55
2019-03-17T10:41:00.020Z,72.45
2019-03-17T10:42:10.218Z,72.26
2019-03-17T10:43:20.364Z,72.93
2019-03-17T10:44:30.488Z,72.55
2019-03-17T10:45:40.665Z,72.83
2019-03-17T10:46:50.811Z,73.22
2019-03-17T10:48:01.015Z,73.32
2019-03-17T10:49:11.158Z,72.55
2019-03-17T10:50:21.289Z,73.12
2019-03-17T10:51:31.402Z,73.5
2019-03-17T10:52:41.570Z,73.12
2019-03-17T10:53:51.714Z,73.22
2019-03-17T10:55:01.862Z,73.18
2019-03-17T10:56:12.015Z,73.32
2019-03-17T10:57:22.165Z,73.6
2019-03-17T10:58:32.328Z,73.69
2019-03-17T10:59:42.469Z,74.27
2019-03-17T11:00:52.601Z,73.6
2019-03-17T11:02:02.759Z,73.69
2019-03-17T11:03:12.670Z,73.98
2019-03-17T11:04:22.772Z,74.08
2019-03-17T11:05:32.937Z,74.27
2019-03-17T11:06:43.088Z,74.04
2019-03-17T11:07:53.274Z,74.52
2019-03-17T11:09:03.414Z,74.52
2019-03-17T11:10:13.573Z,74.42
2019-03-17T11:11:23.754Z,75.18
2019-03-17T11:12:33.925Z,75.18
2019-03-17T11:13:44.057Z,76.14
2019-03-17T11:14:54.217Z,76.14
2019-03-17T11:16:04.359Z,75.85
2019-03-17T11:17:14.560Z,76.23
2019-03-17T11:18:24.685Z,76.52
2019-03-17T11:19:34.826Z,76.42
2019-03-17T11:20:44.744Z,76.42
2019-03-17T11:21:54.869Z,77.28
2019-03-17T11:23:04.760Z,78.52
2019-03-17T11:24:14.931Z,77.57
2019-03-17T11:25:25.072Z,72.99
2019-03-17T11:26:34.963Z,74.1
2019-03-17T11:27:45.159Z,75.15
2019-03-17T11:28:55.344Z,76.25
2019-03-17T11:30:05.894Z,77.78
2019-03-17T11:31:16.410Z,78.31
2019-03-17T11:32:26.605Z,79.46
2019-03-17T11:33:37.229Z,79.46
2019-03-17T11:34:47.172Z,79.74
2019-03-17T11:35:57.818Z,80.22
2019-03-17T11:37:08.355Z,81.41
2019-03-17T11:38:18.675Z,81.51
2019-03-17T11:39:40.102Z,81.32
2019-03-17T11:40:50.479Z,81.51
2019-03-17T11:42:00.842Z,81.7
2019-03-17T11:43:11.033Z,81.89
2019-03-17T11:44:21.110Z,81.51
2019-03-17T11:45:31.361Z,81.7
2019-03-17T11:46:41.775Z,81.13
2019-03-17T11:47:52.160Z,81.41
2019-03-17T11:49:02.351Z,81.41
2019-03-17T11:50:12.660Z,80.55
2019-03-17T11:51:22.972Z,80.75
2019-03-17T11:52:33.275Z,81.23
2019-03-17T11:53:43.635Z,81.41
2019-03-17T11:54:54.141Z,81.23
2019-03-17T11:56:04.191Z,80.71
2019-03-17T11:57:14.931Z,80.71
2019-03-17T11:58:25.202Z,80.84
2019-03-17T11:59:35.878Z,80.46
2019-03-17T12:00:46.569Z,80.75
2019-03-17T12:01:56.957Z,80.04
2019-03-17T12:03:07.299Z,80.23
2019-03-17T12:04:17.618Z,80.13
2019-03-17T12:05:27.878Z,79.7
2019-03-17T12:06:38.159Z,79.13
2019-03-17T12:07:48.509Z,79.22
2019-03-17T12:08:58.857Z,79.13
2019-03-17T12:10:12.301Z,79.09
2019-03-17T12:11:22.804Z,79.6
2019-03-17T12:12:33.032Z,79.13
2019-03-17T12:13:43.309Z,78.94
2019-03-17T12:14:54.022Z,78.85
2019-03-17T12:16:04.145Z,79.41
2019-03-17T12:17:14.909Z,78.94
2019-03-17T12:18:25.388Z,79.22
2019-03-17T12:19:35.702Z,79.32
2019-03-17T12:20:45.973Z,79.13
2019-03-17T12:22:08.371Z,79.22
2019-03-17T12:23:19.746Z,78.94
2019-03-17T12:24:29.984Z,78.17
2019-03-17T12:25:40.134Z,78.17
2019-03-17T12:26:50.600Z,78.41
2019-03-17T12:28:01.600Z,77.93
2019-03-17T12:29:12.339Z,77.83
2019-03-17T12:30:22.729Z,77.45
2019-03-17T12:31:33.005Z,77.17
2019-03-17T12:32:43.995Z,77.17
2019-03-17T12:33:55.075Z,76.88
2019-03-17T12:35:05.480Z,76.4
2019-03-17T12:36:18.834Z,76.21
2019-03-17T12:37:29.757Z,76.03
2019-03-17T12:38:39.865Z,76.31
2019-03-17T12:40:01.675Z,76.21
2019-03-17T12:41:12.709Z,76.59
2019-03-17T12:42:23.033Z,76.5
2019-03-17T12:43:33.484Z,75.93
2019-03-17T12:44:44.198Z,76.21
2019-03-17T12:45:54.964Z,75.74
2019-03-17T12:47:05.179Z,75.74
2019-03-17T12:48:15.376Z,75.16
2019-03-17T12:49:25.538Z,75.16
2019-03-17T12:50:35.700Z,75.84
2019-03-17T12:51:46.175Z,75.84
2019-03-17T12:52:56.145Z,75.84
2019-03-17T12:54:06.319Z,76.54
2019-03-17T12:55:16.523Z,76.16
2019-03-17T12:56:26.725Z,75.96
2019-03-17T12:57:36.897Z,75.96
2019-03-17T12:58:47.053Z,75.87
2019-03-17T12:59:57.243Z,76.06
2019-03-17T13:01:07.481Z,76.16
2019-03-17T13:02:17.637Z,75.87
2019-03-17T13:03:27.791Z,75.96
2019-03-17T13:04:37.348Z,75.49
2019-03-17T13:05:47.537Z,75.68
2019-03-17T13:06:57.694Z,75.87
2019-03-17T13:08:07.857Z,75.59
2019-03-17T13:09:18.043Z,75.87
2019-03-17T13:10:28.193Z,76.16
2019-03-17T13:11:38.344Z,76.06
2019-03-17T13:12:47.902Z,75.78
2019-03-17T13:13:58.057Z,76.16
2019-03-17T13:15:09.957Z,76.06
2019-03-17T13:16:20.162Z,76.06
2019-03-17T13:17:30.328Z,75.78
2019-03-17T13:18:40.561Z,75.49
2019-03-17T13:19:50.730Z,75.59
2019-03-17T13:21:00.884Z,74.92
2019-03-17T13:22:11.214Z,75.4
2019-03-17T13:23:21.761Z,75.11
2019-03-17T13:24:31.908Z,75.2
2019-03-17T13:25:42.076Z,75.2
2019-03-17T13:26:52.296Z,75.11
2019-03-17T13:28:02.490Z,75.2
2019-03-17T13:29:12.677Z,75.2
2019-03-17T13:30:22.840Z,74.63
2019-03-17T13:31:33.023Z,74.54
2019-03-17T13:32:43.283Z,74.92
2019-03-17T13:33:53.456Z,74.82
2019-03-17T13:35:03.618Z,74.92
2019-03-17T13:36:13.760Z,74.82
2019-03-17T13:37:23.980Z,74.73
2019-03-17T13:38:34.162Z,74.63
2019-03-17T13:39:44.358Z,75.3
2019-03-17T13:40:54.596Z,74.63
2019-03-17T13:42:04.805Z,74.73
2019-03-17T13:43:14.797Z,74.29
2019-03-17T13:44:24.987Z,74.16
2019-03-17T13:45:35.199Z,74.06
2019-03-17T13:46:45.411Z,73.81
2019-03-17T13:47:56.007Z,73.58
2019-03-17T13:49:06.191Z,73.11
2019-03-17T13:50:16.359Z,73.21
2019-03-17T13:51:26.531Z,73.39
2019-03-17T13:52:36.733Z,73.01
2019-03-17T13:53:46.905Z,73.01
2019-03-17T13:54:57.207Z,73.49
2019-03-17T13:56:07.363Z,73.01
2019-03-17T13:57:17.519Z,72.82
2019-03-17T13:58:27.734Z,73.3
2019-03-17T13:59:37.902Z,72.92
2019-03-17T14:00:48.104Z,73.01
2019-03-17T14:01:58.374Z,72.82
2019-03-17T14:03:08.547Z,73.21
2019-03-17T14:04:20.415Z,73.01
2019-03-17T14:05:30.607Z,72.63
2019-03-17T14:06:40.809Z,72.38
2019-03-17T14:07:50.974Z,72.06
2019-03-17T14:09:01.144Z,72.25
2019-03-17T14:10:16.073Z,72.25
2019-03-17T14:11:26.254Z,72.28
2019-03-17T14:12:36.387Z,72.48
2019-03-17T14:13:46.568Z,71.81
2019-03-17T14:14:56.754Z,71.43
2019-03-17T14:16:06.919Z,71.43
2019-03-17T14:17:18.800Z,71.39
2019-03-17T14:18:28.952Z,70.92
2019-03-17T14:19:38.966Z,70.95
2019-03-17T14:20:49.146Z,71.04
2019-03-17T14:21:59.337Z,70.86
2019-03-17T14:23:09.529Z,71.04
2019-03-17T14:24:19.730Z,70.53
2019-03-17T14:25:31.230Z,70.47
2019-03-17T14:26:41.608Z,70.38
2019-03-17T14:27:51.635Z,69.96
2019-03-17T14:29:01.798Z,70.53
2019-03-17T14:30:11.952Z,70
2019-03-17T14:31:22.157Z,69.9
2019-03-17T14:32:32.382Z,69.43
2019-03-17T14:33:42.350Z,69.33
2019-03-17T14:34:52.556Z,69.43
2019-03-17T14:36:02.726Z,69.62
2019-03-17T14:37:12.926Z,68.85
2019-03-17T14:38:23.126Z,69.33
2019-03-17T14:39:33.316Z,69.33
2019-03-17T14:40:57.161Z,68.57
2019-03-17T14:42:07.604Z,69.14
2019-03-17T14:43:17.772Z,68.95
2019-03-17T14:44:28.003Z,68.57
2019-03-17T14:45:38.148Z,68.28
2019-03-17T14:46:48.313Z,68.28
2019-03-17T14:47:58.537Z,67.61
2019-03-17T14:49:08.740Z,67.99
2019-03-17T14:50:19.121Z,68.57
2019-03-17T14:51:29.287Z,68.28
2019-03-17T14:52:39.463Z,68.66
2019-03-17T14:53:50.602Z,68.47
2019-03-17T14:55:00.795Z,68.57
2019-03-17T14:56:10.999Z,68.47
2019-03-17T14:57:21.177Z,68.47
2019-03-17T14:58:31.390Z,68.18
2019-03-17T14:59:41.594Z,68.09
2019-03-17T15:00:51.803Z,68.47
2019-03-17T15:02:01.659Z,68.57
2019-03-17T15:03:11.851Z,68.47
2019-03-17T15:04:22.003Z,67.77
2019-03-17T15:05:31.594Z,67.42
2019-03-17T15:06:41.844Z,67.58
2019-03-17T15:07:52.036Z,67.58
2019-03-17T15:09:02.263Z,66.63
2019-03-17T15:10:12.619Z,66.63